Time;durP1;ratioP1;P1;durP2;ratioP2;P2;SDS_P1;SDS_P2;PMS_P1;PMS_P2;Temp;Humidity;BMP_temperature;BMP_pressure;BME280_temperature;BME280_humidity;BME280_pressure;Samples;Min_cycle;Max_cycle;Signal;HPM_P1;HPM_P2
2021/04/14 00:01:26;;;;;;;17.63;9.95;;;;;;;;;;5039772;28;20424;-65
2021/04/14 00:03:54;;;;;;;20.05;9.93;;;;;;;;;;5049770;28;20099;-65
2021/04/14 00:06:26;;;;;;;19.13;10.95;;;;;;;;;;5050823;28;20135;-65
2021/04/14 00:08:54;;;;;;;21.60;11.10;;;;;;;;;;5050452;28;20151;-65
2021/04/14 00:11:21;;;;;;;17.73;10.93;;;;;;;;;;5049727;28;20504;-65
2021/04/14 00:13:49;;;;;;;18.80;10.88;;;;;;;;;;5042696;28;20102;-65
2021/04/14 00:16:21;;;;;;;21.38;11.35;;;;;;;;;;5050502;28;20061;-65
2021/04/14 00:18:48;;;;;;;19.60;10.65;;;;;;;;;;5045684;28;20135;-65
2021/04/14 00:21:17;;;;;;;16.70;10.27;;;;;;;;;;5051378;28;20056;-65
2021/04/14 00:23:44;;;;;;;23.02;11.55;;;;;;;;;;5050595;28;20144;-64
2021/04/14 00:26:14;;;;;;;18.58;10.48;;;;;;;;;;5050531;28;20345;-64
2021/04/14 00:28:42;;;;;;;17.65;10.35;;;;;;;;;;5049870;28;20048;-64
2021/04/14 00:31:10;;;;;;;20.23;10.18;;;;;;;;;;5045631;28;20502;-64
2021/04/14 00:33:37;;;;;;;18.00;10.23;;;;;;;;;;5061233;28;20501;-64
2021/04/14 00:36:05;;;;;;;23.35;10.25;;;;;;;;;;5049257;28;20106;-64
2021/04/14 00:38:33;;;;;;;17.00;9.52;;;;;;;;;;5049460;28;20045;-64
2021/04/14 00:41:01;;;;;;;21.90;11.32;;;;;;;;;;5049695;28;20209;-64
2021/04/14 00:43:31;;;;;;;19.92;10.27;;;;;;;;;;5050377;28;20052;-64
2021/04/14 00:45:58;;;;;;;18.80;11.57;;;;;;;;;;5049974;28;20061;-64
2021/04/14 00:48:26;;;;;;;22.58;11.27;;;;;;;;;;5048998;28;20059;-64
2021/04/14 00:50:53;;;;;;;21.33;11.68;;;;;;;;;;5042574;28;20081;-64
2021/04/14 00:53:21;;;;;;;22.42;10.95;;;;;;;;;;5048593;28;20571;-64
2021/04/14 00:55:49;;;;;;;18.80;10.85;;;;;;;;;;5049799;28;20103;-64
2021/04/14 00:58:17;;;;;;;22.42;11.95;;;;;;;;;;5049693;28;20049;-64
2021/04/14 01:00:46;;;;;;;19.73;10.50;;;;;;;;;;5045828;28;20518;-64
2021/04/14 01:03:15;;;;;;;19.15;10.10;;;;;;;;;;5047324;28;20127;-63
2021/04/14 01:05:44;;;;;;;23.15;10.90;;;;;;;;;;5028772;28;20434;-63
2021/04/14 01:08:11;;;;;;;23.48;11.52;;;;;;;;;;5024710;28;20571;-64
2021/04/14 01:10:38;;;;;;;21.83;11.43;;;;;;;;;;5030262;28;20178;-63
2021/04/14 01:13:06;;;;;;;21.77;10.90;;;;;;;;;;5028798;28;20103;-63
2021/04/14 01:15:35;;;;;;;17.70;10.07;;;;;;;;;;5028989;28;20424;-63
2021/04/14 01:18:04;;;;;;;20.70;11.35;;;;;;;;;;5020895;28;20459;-64
2021/04/14 01:20:31;;;;;;;19.40;10.80;;;;;;;;;;5025703;28;20107;-64
2021/04/14 01:22:59;;;;;;;20.38;10.88;;;;;;;;;;5029439;28;20124;-64
2021/04/14 01:25:31;;;;;;;18.40;10.60;;;;;;;;;;5023066;28;20382;-64
2021/04/14 01:27:58;;;;;;;19.15;10.35;;;;;;;;;;5026577;28;20050;-64
2021/04/14 01:30:27;;;;;;;20.38;11.60;;;;;;;;;;5030156;28;20103;-64
2021/04/14 01:32:55;;;;;;;20.92;11.73;;;;;;;;;;5030960;28;20117;-64
2021/04/14 01:35:23;;;;;;;20.50;10.75;;;;;;;;;;5028942;28;20041;-64
2021/04/14 01:37:51;;;;;;;23.98;11.50;;;;;;;;;;5029112;28;20080;-64
2021/04/14 01:40:19;;;;;;;22.45;11.55;;;;;;;;;;5030932;28;20053;-64
2021/04/14 01:42:47;;;;;;;21.95;10.80;;;;;;;;;;5030695;28;20136;-64
2021/04/14 01:45:15;;;;;;;20.90;10.73;;;;;;;;;;5030456;28;20103;-64
2021/04/14 01:47:42;;;;;;;21.77;11.45;;;;;;;;;;5011972;28;20085;-64
2021/04/14 01:50:13;;;;;;;17.67;9.95;;;;;;;;;;5021034;28;20049;-64
2021/04/14 01:52:40;;;;;;;17.10;10.02;;;;;;;;;;5029169;28;20438;-64
2021/04/14 01:55:09;;;;;;;24.08;11.63;;;;;;;;;;5018125;28;20045;-64
2021/04/14 01:57:37;;;;;;;23.73;11.05;;;;;;;;;;5026395;28;20045;-64
2021/04/14 02:00:08;;;;;;;20.77;10.63;;;;;;;;;;5027730;28;20054;-64
2021/04/14 02:02:35;;;;;;;16.90;8.82;;;;;;;;;;5028553;28;20050;-64
2021/04/14 02:05:04;;;;;;;20.35;10.65;;;;;;;;;;5039179;28;20048;-64
2021/04/14 02:07:31;;;;;;;17.63;9.45;;;;;;;;;;5045177;28;20041;-64
2021/04/14 02:09:59;;;;;;;17.70;10.27;;;;;;;;;;5047174;28;20140;-64
2021/04/14 02:12:26;;;;;;;18.30;9.65;;;;;;;;;;5030653;28;20513;-64
2021/04/14 02:14:55;;;;;;;15.85;8.73;;;;;;;;;;5048577;28;20053;-64
2021/04/14 02:17:22;;;;;;;17.13;8.75;;;;;;;;;;5049901;28;20068;-64
2021/04/14 02:19:51;;;;;;;19.83;9.32;;;;;;;;;;5053292;28;20080;-64
2021/04/14 02:22:18;;;;;;;18.77;9.30;;;;;;;;;;5048824;28;20122;-64
2021/04/14 02:24:45;;;;;;;19.42;8.60;;;;;;;;;;5049815;28;20102;-64
2021/04/14 02:27:13;;;;;;;19.85;8.45;;;;;;;;;;5049367;28;20228;-64
2021/04/14 02:29:40;;;;;;;13.30;7.35;;;;;;;;;;5045678;28;20052;-64
2021/04/14 02:32:08;;;;;;;11.75;6.38;;;;;;;;;;5052734;28;20053;-64
2021/04/14 02:34:36;;;;;;;13.38;7.20;;;;;;;;;;5052958;28;20068;-65
2021/04/14 02:37:04;;;;;;;14.65;7.43;;;;;;;;;;5038945;28;20130;-65
2021/04/14 02:39:31;;;;;;;14.95;7.65;;;;;;;;;;5051533;28;20045;-65
2021/04/14 02:41:59;;;;;;;13.95;7.45;;;;;;;;;;5051571;28;20088;-65
2021/04/14 02:44:26;;;;;;;12.77;7.28;;;;;;;;;;5052887;28;20044;-65
2021/04/14 02:46:55;;;;;;;16.17;6.72;;;;;;;;;;5050554;28;20468;-65
2021/04/14 02:49:24;;;;;;;15.35;7.80;;;;;;;;;;5053414;28;20142;-63
2021/04/14 02:51:51;;;;;;;13.90;7.75;;;;;;;;;;5047960;28;20552;-64
2021/04/14 02:54:19;;;;;;;14.27;7.07;;;;;;;;;;5052283;28;20510;-64
2021/04/14 02:56:46;;;;;;;13.32;7.72;;;;;;;;;;5049678;28;20136;-64
2021/04/14 02:59:14;;;;;;;16.50;7.32;;;;;;;;;;5053271;28;20142;-64
2021/04/14 03:01:41;;;;;;;16.83;7.82;;;;;;;;;;5051313;28;20080;-64
2021/04/14 03:04:09;;;;;;;14.35;7.50;;;;;;;;;;5052218;28;20140;-64
2021/04/14 03:06:37;;;;;;;13.93;7.85;;;;;;;;;;5046488;28;20481;-64
2021/04/14 03:09:05;;;;;;;15.73;7.65;;;;;;;;;;5032280;28;20049;-64
2021/04/14 03:11:32;;;;;;;15.88;7.38;;;;;;;;;;5042085;28;20052;-64
2021/04/14 03:14:00;;;;;;;17.27;7.43;;;;;;;;;;5036159;28;20088;-64
2021/04/14 03:16:28;;;;;;;19.90;7.95;;;;;;;;;;5051089;28;20405;-64
2021/04/14 03:18:55;;;;;;;13.52;7.85;;;;;;;;;;5040843;28;20124;-64
2021/04/14 03:21:22;;;;;;;12.88;7.68;;;;;;;;;;5051747;28;20048;-64
2021/04/14 03:23:51;;;;;;;15.65;7.55;;;;;;;;;;5046967;28;20053;-64
2021/04/14 03:26:18;;;;;;;15.38;7.35;;;;;;;;;;5050451;28;20484;-64
2021/04/14 03:28:45;;;;;;;14.35;7.95;;;;;;;;;;5050471;28;20345;-63
2021/04/14 03:31:13;;;;;;;17.35;7.28;;;;;;;;;;5046452;28;20056;-63
2021/04/14 03:33:41;;;;;;;14.18;7.28;;;;;;;;;;5051861;28;20053;-63
2021/04/14 03:36:08;;;;;;;13.60;7.32;;;;;;;;;;5051025;28;20049;-63
2021/04/14 03:38:36;;;;;;;19.02;7.35;;;;;;;;;;5050830;28;20053;-63
2021/04/14 03:41:04;;;;;;;14.77;7.63;;;;;;;;;;5051357;28;20048;-63
2021/04/14 03:43:32;;;;;;;13.13;7.10;;;;;;;;;;5051782;28;20124;-63
2021/04/14 03:46:00;;;;;;;15.20;7.90;;;;;;;;;;5052053;28;20199;-63
2021/04/14 03:48:27;;;;;;;15.63;8.20;;;;;;;;;;5049976;28;20110;-63
2021/04/14 03:50:55;;;;;;;14.68;7.65;;;;;;;;;;5051214;28;20056;-63
2021/04/14 03:53:26;;;;;;;20.50;7.70;;;;;;;;;;5044929;28;20132;-63
2021/04/14 03:55:54;;;;;;;19.80;7.45;;;;;;;;;;5050580;28;20131;-64
2021/04/14 03:58:22;;;;;;;17.08;8.57;;;;;;;;;;5049850;28;20324;-64
2021/04/14 04:00:51;;;;;;;19.40;8.27;;;;;;;;;;5051667;28;20571;-64
2021/04/14 04:03:24;;;;;;;15.85;7.95;;;;;;;;;;4775597;28;10001111;-66
2021/04/14 04:05:52;;;;;;;14.18;7.78;;;;;;;;;;691844;28;10002037;-64
2021/04/14 04:08:19;;;;;;;14.15;7.70;;;;;;;;;;5040908;28;20374;-64
2021/04/14 04:10:47;;;;;;;24.20;9.25;;;;;;;;;;5040622;28;20109;-64
2021/04/14 04:13:15;;;;;;;22.10;8.52;;;;;;;;;;5040030;28;20068;-63
2021/04/14 04:15:44;;;;;;;17.63;8.48;;;;;;;;;;5049000;28;20128;-64
2021/04/14 04:18:12;;;;;;;15.15;7.20;;;;;;;;;;5032425;28;20045;-62
2021/04/14 04:20:40;;;;;;;16.08;7.43;;;;;;;;;;5029765;28;20393;-64
2021/04/14 04:23:08;;;;;;;18.27;7.68;;;;;;;;;;5025343;28;20084;-64
2021/04/14 04:25:35;;;;;;;20.65;8.15;;;;;;;;;;5028377;28;20116;-64
2021/04/14 04:28:03;;;;;;;15.50;7.32;;;;;;;;;;5029965;28;20564;-64
2021/04/14 04:30:31;;;;;;;16.00;7.72;;;;;;;;;;5030285;28;20481;-64
2021/04/14 04:33:00;;;;;;;27.27;8.07;;;;;;;;;;5032475;28;20088;-64
2021/04/14 04:35:28;;;;;;;23.67;7.95;;;;;;;;;;5044572;28;20440;-64
2021/04/14 04:37:55;;;;;;;16.08;7.90;;;;;;;;;;5030349;28;20064;-65
2021/04/14 04:40:23;;;;;;;22.20;8.13;;;;;;;;;;5031335;28;20046;-65
2021/04/14 04:42:50;;;;;;;15.38;8.60;;;;;;;;;;5011803;28;20235;-65
2021/04/14 04:45:19;;;;;;;13.48;7.40;;;;;;;;;;5017781;28;20103;-65
2021/04/14 04:47:46;;;;;;;21.15;8.25;;;;;;;;;;5026793;28;20163;-65
2021/04/14 04:50:15;;;;;;;18.10;8.10;;;;;;;;;;5029393;28;20056;-65
2021/04/14 04:52:42;;;;;;;17.73;7.90;;;;;;;;;;5031382;28;20129;-65
2021/04/14 04:55:11;;;;;;;17.95;8.23;;;;;;;;;;5026407;28;20046;-65
2021/04/14 04:57:38;;;;;;;15.77;8.73;;;;;;;;;;5035351;28;20065;-65
2021/04/14 05:00:07;;;;;;;15.90;8.48;;;;;;;;;;5029677;28;20116;-65
2021/04/14 05:02:34;;;;;;;19.88;8.10;;;;;;;;;;5028705;28;20136;-65
2021/04/14 05:05:02;;;;;;;20.77;8.88;;;;;;;;;;5043522;28;20107;-64
2021/04/14 05:07:30;;;;;;;20.95;8.65;;;;;;;;;;5041922;28;20072;-65
2021/04/14 05:09:59;;;;;;;18.02;8.65;;;;;;;;;;5046148;28;20564;-65
2021/04/14 05:12:27;;;;;;;20.42;8.60;;;;;;;;;;5049121;28;20057;-65
2021/04/14 05:14:54;;;;;;;18.20;8.50;;;;;;;;;;5045178;28;20562;-65
2021/04/14 05:17:22;;;;;;;19.33;8.35;;;;;;;;;;5046684;28;20405;-65
2021/04/14 05:19:49;;;;;;;22.30;8.40;;;;;;;;;;5045616;28;20171;-65
2021/04/14 05:22:19;;;;;;;15.05;8.18;;;;;;;;;;5047479;28;20083;-65
2021/04/14 05:24:48;;;;;;;17.75;7.80;;;;;;;;;;5040229;28;20049;-65
2021/04/14 05:27:16;;;;;;;21.17;9.32;;;;;;;;;;5037587;28;20128;-65
2021/04/14 05:29:43;;;;;;;16.48;8.10;;;;;;;;;;5040967;28;20139;-63
2021/04/14 05:32:10;;;;;;;16.40;8.68;;;;;;;;;;5044346;28;20175;-64
2021/04/14 05:34:38;;;;;;;15.23;8.35;;;;;;;;;;5043196;28;20045;-64
2021/04/14 05:37:05;;;;;;;15.75;8.32;;;;;;;;;;5042905;28;20044;-63
2021/04/14 05:39:33;;;;;;;18.65;8.85;;;;;;;;;;5044123;28;20041;-64
2021/04/14 05:42:01;;;;;;;16.15;8.32;;;;;;;;;;5044046;28;20480;-63
2021/04/14 05:44:28;;;;;;;19.83;9.10;;;;;;;;;;5043058;28;20076;-63
2021/04/14 05:46:56;;;;;;;15.52;8.60;;;;;;;;;;5038997;28;20136;-63
2021/04/14 05:49:24;;;;;;;16.17;7.97;;;;;;;;;;5043123;28;20049;-63
2021/04/14 05:51:51;;;;;;;16.50;8.73;;;;;;;;;;5039954;28;20083;-64
2021/04/14 05:54:19;;;;;;;18.33;8.68;;;;;;;;;;5039514;28;20091;-64
2021/04/14 05:56:46;;;;;;;17.38;8.50;;;;;;;;;;5040267;28;20072;-64
2021/04/14 05:59:15;;;;;;;17.75;8.57;;;;;;;;;;5042297;28;20350;-63
2021/04/14 06:01:44;;;;;;;24.17;9.50;;;;;;;;;;5047306;28;20269;-63
2021/04/14 06:04:12;;;;;;;16.27;9.10;;;;;;;;;;5039686;28;20038;-63
2021/04/14 06:06:40;;;;;;;19.40;9.23;;;;;;;;;;5023302;28;20057;-63
2021/04/14 06:09:09;;;;;;;19.33;9.02;;;;;;;;;;5025301;28;20188;-64
2021/04/14 06:11:37;;;;;;;19.00;9.43;;;;;;;;;;5028265;28;20041;-63
2021/04/14 06:14:04;;;;;;;19.75;9.02;;;;;;;;;;5027091;28;20118;-63
2021/04/14 06:16:33;;;;;;;19.83;9.45;;;;;;;;;;5025190;28;20095;-64
2021/04/14 06:19:00;;;;;;;20.65;9.43;;;;;;;;;;5020897;28;20076;-64
2021/04/14 06:21:29;;;;;;;24.08;9.70;;;;;;;;;;5024268;28;20125;-64
2021/04/14 06:23:58;;;;;;;20.15;8.85;;;;;;;;;;5027324;28;20563;-64
2021/04/14 06:26:35;;;;;;;29.38;9.73;;;;;;;;;;5025094;28;20136;-64
2021/04/14 06:29:04;;;;;;;23.73;11.73;;;;;;;;;;5026467;28;20046;-64
2021/04/14 06:31:39;;;;;;;24.02;11.98;;;;;;;;;;5025411;28;20531;-64
2021/04/14 06:34:13;;;;;;;38.10;12.00;;;;;;;;;;5020322;28;20045;-65
2021/04/14 06:36:41;;;;;;;18.88;10.25;;;;;;;;;;5026700;28;20049;-65
2021/04/14 06:39:11;;;;;;;26.85;9.65;;;;;;;;;;5027334;28;20053;-65
2021/04/14 06:42:03;;;;;;;13.35;7.22;;;;;;;;;;5024060;28;20041;-65
2021/04/14 06:44:38;;;;;;;18.38;7.63;;;;;;;;;;5024232;28;20103;-65
2021/04/14 06:47:10;;;;;;;17.98;8.10;;;;;;;;;;5026307;28;20057;-65
2021/04/14 06:49:42;;;;;;;16.85;6.68;;;;;;;;;;5024437;28;20124;-65
2021/04/14 06:52:13;;;;;;;17.70;6.05;;;;;;;;;;5022968;28;20045;-66
2021/04/14 06:54:45;;;;;;;13.38;5.50;;;;;;;;;;5024659;28;20077;-65
2021/04/14 06:57:19;;;;;;;15.20;5.68;;;;;;;;;;5020616;28;20060;-66
2021/04/14 06:59:48;;;;;;;14.38;6.25;;;;;;;;;;5028003;28;20046;-66
2021/04/14 07:02:20;;;;;;;14.77;6.28;;;;;;;;;;5026445;28;20576;-66
2021/04/14 07:04:50;;;;;;;19.35;5.72;;;;;;;;;;5044831;28;20084;-66
2021/04/14 07:07:20;;;;;;;10.73;5.50;;;;;;;;;;5051016;28;20305;-66
2021/04/14 07:09:49;;;;;;;10.18;5.20;;;;;;;;;;5049295;28;20060;-65
2021/04/14 07:12:19;;;;;;;13.75;5.22;;;;;;;;;;5044338;28;20135;-66
2021/04/14 07:14:47;;;;;;;9.93;4.40;;;;;;;;;;5043001;28;20056;-66
2021/04/14 07:17:19;;;;;;;7.47;4.70;;;;;;;;;;5051621;28;20076;-66
2021/04/14 07:20:01;;;;;;;10.90;4.78;;;;;;;;;;5047842;28;20508;-66
2021/04/14 07:22:46;;;;;;;9.95;4.32;;;;;;;;;;5036216;28;20056;-66
2021/04/14 07:25:15;;;;;;;15.13;4.73;;;;;;;;;;5047683;28;20424;-66
2021/04/14 07:27:50;;;;;;;10.65;4.53;;;;;;;;;;5044188;28;20315;-66
2021/04/14 07:30:22;;;;;;;13.75;6.00;;;;;;;;;;5051306;28;20052;-66
2021/04/14 07:32:55;;;;;;;13.25;4.50;;;;;;;;;;5051945;28;20049;-66
2021/04/14 07:35:27;;;;;;;12.43;5.18;;;;;;;;;;5051442;28;20045;-66
2021/04/14 07:37:58;;;;;;;8.65;4.35;;;;;;;;;;5047486;28;20111;-66
2021/04/14 07:40:30;;;;;;;8.93;4.32;;;;;;;;;;5036526;28;20103;-66
2021/04/14 07:43:02;;;;;;;7.60;4.30;;;;;;;;;;5049456;28;20509;-65
2021/04/14 07:45:33;;;;;;;9.88;4.30;;;;;;;;;;5051434;28;20060;-66
2021/04/14 07:48:04;;;;;;;7.82;4.32;;;;;;;;;;5050487;28;20067;-66
2021/04/14 07:50:36;;;;;;;10.10;4.20;;;;;;;;;;5039469;28;20048;-66
2021/04/14 07:53:16;;;;;;;8.35;4.32;;;;;;;;;;5050621;28;20045;-65
2021/04/14 07:55:44;;;;;;;7.15;4.20;;;;;;;;;;5049108;28;20127;-64
2021/04/14 07:58:15;;;;;;;13.95;3.83;;;;;;;;;;5048228;28;20071;-65
2021/04/14 08:00:45;;;;;;;17.17;4.78;;;;;;;;;;5048339;28;20488;-65
2021/04/14 08:03:25;;;;;;;15.30;4.57;;;;;;;;;;5049554;28;20430;-66
2021/04/14 08:05:53;;;;;;;12.32;5.22;;;;;;;;;;5053763;28;20059;-65
2021/04/14 08:08:25;;;;;;;12.13;3.97;;;;;;;;;;5052935;28;20068;-65
2021/04/14 08:10:56;;;;;;;7.55;3.92;;;;;;;;;;5042518;28;20478;-66
2021/04/14 08:13:26;;;;;;;9.68;4.00;;;;;;;;;;5032917;28;20589;-65
2021/04/14 08:15:54;;;;;;;7.57;3.35;;;;;;;;;;5044681;28;20173;-65
2021/04/14 08:18:28;;;;;;;13.75;3.80;;;;;;;;;;5039650;28;20067;-65
2021/04/14 08:21:09;;;;;;;7.45;4.15;;;;;;;;;;5045447;28;20052;-65
2021/04/14 08:23:37;;;;;;;6.25;3.42;;;;;;;;;;5050377;28;20053;-65
2021/04/14 08:26:13;;;;;;;8.50;3.35;;;;;;;;;;5035785;28;20045;-65
2021/04/14 08:28:44;;;;;;;8.57;3.47;;;;;;;;;;5037795;28;20060;-65
2021/04/14 08:31:17;;;;;;;9.40;3.40;;;;;;;;;;5047040;28;20495;-65
2021/04/14 08:33:45;;;;;;;5.57;3.08;;;;;;;;;;5046423;28;20456;-65
2021/04/14 08:36:22;;;;;;;8.52;3.33;;;;;;;;;;5048274;28;20048;-65
2021/04/14 08:38:50;;;;;;;5.53;2.90;;;;;;;;;;5048554;28;20087;-65
2021/04/14 08:41:23;;;;;;;5.88;2.78;;;;;;;;;;5049821;28;20152;-65
2021/04/14 08:43:53;;;;;;;4.35;2.70;;;;;;;;;;5050545;28;20707;-65
2021/04/14 08:46:25;;;;;;;9.82;2.83;;;;;;;;;;5044622;28;20061;-65
2021/04/14 08:48:55;;;;;;;7.78;3.20;;;;;;;;;;5046908;28;20136;-65
2021/04/14 08:51:24;;;;;;;9.40;3.03;;;;;;;;;;5045898;28;20045;-65
2021/04/14 08:53:55;;;;;;;9.93;3.08;;;;;;;;;;5049068;28;20542;-65
2021/04/14 08:56:24;;;;;;;6.97;3.20;;;;;;;;;;5042865;28;20424;-65
2021/04/14 08:58:54;;;;;;;7.47;3.25;;;;;;;;;;5048563;28;20076;-65
2021/04/14 09:01:22;;;;;;;6.30;3.38;;;;;;;;;;5055043;28;20143;-65
2021/04/14 09:03:54;;;;;;;6.28;3.33;;;;;;;;;;5052199;28;20417;-64
2021/04/14 09:06:23;;;;;;;9.38;3.15;;;;;;;;;;5045954;28;20340;-64
2021/04/14 09:08:53;;;;;;;6.03;2.75;;;;;;;;;;5034737;28;20489;-65
2021/04/14 09:11:24;;;;;;;4.10;2.80;;;;;;;;;;5044857;28;20515;-65
2021/04/14 09:14:01;;;;;;;7.47;3.08;;;;;;;;;;5041024;28;20069;-65
2021/04/14 09:16:31;;;;;;;4.60;3.07;;;;;;;;;;5049089;28;20064;-65
2021/04/14 09:19:07;;;;;;;7.28;3.35;;;;;;;;;;5048098;28;20065;-64
2021/04/14 09:21:46;;;;;;;7.00;3.13;;;;;;;;;;5045114;28;20052;-65
2021/04/14 09:24:28;;;;;;;10.00;3.50;;;;;;;;;;5042313;28;20369;-65
2021/04/14 09:26:58;;;;;;;7.22;3.15;;;;;;;;;;5046202;28;20049;-65
2021/04/14 09:29:35;;;;;;;5.95;3.03;;;;;;;;;;5044443;28;20045;-65
2021/04/14 09:32:11;;;;;;;9.05;3.00;;;;;;;;;;5047138;28;20123;-64
2021/04/14 09:34:40;;;;;;;5.03;3.00;;;;;;;;;;5046812;28;20490;-64
2021/04/14 09:37:24;;;;;;;10.82;2.78;;;;;;;;;;5044722;28;20055;-65
2021/04/14 09:39:59;;;;;;;6.05;2.92;;;;;;;;;;5049054;28;20049;-65
2021/04/14 09:42:34;;;;;;;8.32;3.58;;;;;;;;;;5033839;28;20448;-65
2021/04/14 09:45:13;;;;;;;6.72;3.10;;;;;;;;;;5038117;28;20053;-65
2021/04/14 09:47:41;;;;;;;4.47;2.83;;;;;;;;;;5035691;28;20102;-65
2021/04/14 09:50:17;;;;;;;6.60;2.50;;;;;;;;;;5045909;28;20120;-65
2021/04/14 09:52:50;;;;;;;5.82;3.00;;;;;;;;;;5042229;28;20053;-65
2021/04/14 09:55:44;;;;;;;10.20;3.40;;;;;;;;;;5038218;28;20183;-65
2021/04/14 09:58:12;;;;;;;;;;;;;;;;;;5041798;28;20480;-65
2021/04/14 10:00:42;;;;;;;5.20;2.55;;;;;;;;;;5053937;28;19931;-65
2021/04/14 10:03:11;;;;;;;5.40;2.72;;;;;;;;;;5034193;28;20191;-65
2021/04/14 10:05:44;;;;;;;;;;;;;;;;;;5049577;28;20072;-65
2021/04/14 10:08:14;;;;;;;4.80;2.88;;;;;;;;;;5047943;28;19924;-65
2021/04/14 10:10:44;;;;;;;8.20;3.22;;;;;;;;;;5040491;28;20052;-64
2021/04/14 10:13:13;;;;;;;6.78;2.92;;;;;;;;;;5030590;28;20045;-66
2021/04/14 10:15:42;;;;;;;5.15;2.17;;;;;;;;;;5037452;28;20158;-65
2021/04/14 10:18:11;;;;;;;5.95;2.25;;;;;;;;;;5037886;28;20057;-65
2021/04/14 10:20:39;;;;;;;5.85;2.53;;;;;;;;;;5040305;28;20044;-66
2021/04/14 10:23:11;;;;;;;4.63;2.15;;;;;;;;;;5042672;28;20041;-66
2021/04/14 10:25:40;;;;;;;2.55;1.95;;;;;;;;;;5046155;28;20045;-66
2021/04/14 10:28:11;;;;;;;4.72;2.40;;;;;;;;;;5043931;28;20408;-66
2021/04/14 10:30:40;;;;;;;5.03;2.40;;;;;;;;;;5048326;28;20067;-66
2021/04/14 10:33:10;;;;;;;5.25;2.00;;;;;;;;;;5040888;28;20488;-66
2021/04/14 10:35:38;;;;;;;5.72;1.90;;;;;;;;;;5048102;28;20122;-66
2021/04/14 10:38:06;;;;;;;3.28;1.80;;;;;;;;;;5043472;28;20056;-66
2021/04/14 10:40:35;;;;;;;5.38;2.30;;;;;;;;;;5049098;28;20051;-65
2021/04/14 10:43:13;;;;;;;4.95;2.17;;;;;;;;;;5053336;28;20118;-65
2021/04/14 10:45:53;;;;;;;5.75;2.40;;;;;;;;;;5044646;28;20057;-65
2021/04/14 10:48:22;;;;;;;3.67;1.75;;;;;;;;;;5045807;28;20045;-65
2021/04/14 10:50:50;;;;;;;3.38;2.30;;;;;;;;;;5048510;28;20052;-65
2021/04/14 10:53:18;;;;;;;4.75;2.00;;;;;;;;;;5051141;28;20396;-66
2021/04/14 10:55:48;;;;;;;12.18;2.70;;;;;;;;;;5052836;28;20053;-66
2021/04/14 10:58:19;;;;;;;9.38;2.72;;;;;;;;;;5045407;28;20106;-65
2021/04/14 11:00:53;;;;;;;4.72;2.35;;;;;;;;;;5058849;28;20126;-65
2021/04/14 11:03:22;;;;;;;6.55;2.10;;;;;;;;;;5046598;28;20140;-66
2021/04/14 11:05:52;;;;;;;7.45;2.10;;;;;;;;;;5038341;28;20048;-65
2021/04/14 11:08:20;;;;;;;5.03;2.03;;;;;;;;;;5049758;28;20052;-64
2021/04/14 11:10:50;;;;;;;14.75;4.00;;;;;;;;;;5051736;28;20051;-65
2021/04/14 11:13:20;;;;;;;5.65;1.85;;;;;;;;;;5049352;28;20052;-65
2021/04/14 11:15:49;;;;;;;7.15;2.65;;;;;;;;;;5052637;28;20064;-65
2021/04/14 11:18:17;;;;;;;3.95;2.17;;;;;;;;;;5047593;28;20040;-65
2021/04/14 11:20:49;;;;;;;7.50;2.33;;;;;;;;;;5048477;28;20091;-65
2021/04/14 11:23:19;;;;;;;5.85;2.45;;;;;;;;;;5046572;28;20055;-65
2021/04/14 11:25:47;;;;;;;7.88;2.15;;;;;;;;;;5040895;28;20049;-65
2021/04/14 11:28:15;;;;;;;4.22;2.20;;;;;;;;;;5047782;28;20049;-63
2021/04/14 11:30:48;;;;;;;5.90;2.00;;;;;;;;;;5044999;28;20053;-64
2021/04/14 11:33:17;;;;;;;4.70;2.13;;;;;;;;;;5043389;28;20068;-64
2021/04/14 11:35:47;;;;;;;8.90;2.53;;;;;;;;;;5051289;28;20404;-64
2021/04/14 11:38:34;;;;;;;5.00;2.30;;;;;;;;;;5051612;28;20059;-64
2021/04/14 11:41:12;;;;;;;5.20;3.35;;;;;;;;;;5052556;28;20041;-64
2021/04/14 11:43:42;;;;;;;5.22;2.42;;;;;;;;;;5043402;28;20132;-65
2021/04/14 11:46:27;;;;;;;6.00;2.53;;;;;;;;;;5051004;28;20081;-65
2021/04/14 11:48:56;;;;;;;7.75;2.35;;;;;;;;;;5042492;28;20115;-65
2021/04/14 11:51:31;;;;;;;2.95;2.10;;;;;;;;;;5043199;28;20122;-65
2021/04/14 11:54:00;;;;;;;6.07;2.38;;;;;;;;;;5044840;28;20052;-66
2021/04/14 11:56:36;;;;;;;5.32;2.00;;;;;;;;;;5044113;28;20041;-65
2021/04/14 11:59:04;;;;;;;8.35;2.40;;;;;;;;;;5041684;28;20060;-65
2021/04/14 12:01:35;;;;;;;6.70;2.45;;;;;;;;;;5046344;28;20045;-65
2021/04/14 12:04:11;;;;;;;4.25;2.30;;;;;;;;;;5054401;28;20056;-65
2021/04/14 12:06:39;;;;;;;4.22;2.33;;;;;;;;;;5045252;28;20090;-65
2021/04/14 12:09:07;;;;;;;5.50;2.40;;;;;;;;;;5047146;28;20088;-65
2021/04/14 12:11:35;;;;;;;7.80;2.60;;;;;;;;;;5050222;28;20056;-65
2021/04/14 12:14:07;;;;;;;3.88;2.10;;;;;;;;;;5041092;28;20067;-65
2021/04/14 12:16:37;;;;;;;4.22;1.90;;;;;;;;;;5046856;28;20131;-66
2021/04/14 12:19:06;;;;;;;4.78;2.38;;;;;;;;;;5045672;28;20059;-65
2021/04/14 12:21:34;;;;;;;4.05;2.25;;;;;;;;;;5049081;28;20568;-65
2021/04/14 12:24:02;;;;;;;2.95;2.03;;;;;;;;;;5039525;28;20515;-65
2021/04/14 12:26:30;;;;;;;4.35;2.05;;;;;;;;;;5045988;28;20052;-65
2021/04/14 12:28:58;;;;;;;4.30;1.77;;;;;;;;;;5047107;28;20064;-65
2021/04/14 12:31:26;;;;;;;9.38;2.15;;;;;;;;;;5044490;28;20048;-65
2021/04/14 12:33:55;;;;;;;2.60;1.98;;;;;;;;;;5041677;28;20049;-65
2021/04/14 12:36:23;;;;;;;5.60;2.25;;;;;;;;;;5049041;28;20048;-66
2021/04/14 12:38:51;;;;;;;5.43;2.88;;;;;;;;;;5038264;28;20436;-66
2021/04/14 12:41:19;;;;;;;5.07;2.75;;;;;;;;;;5045845;28;20049;-65
2021/04/14 12:43:47;;;;;;;4.75;2.78;;;;;;;;;;5044208;28;20088;-65
2021/04/14 12:46:14;;;;;;;4.85;2.78;;;;;;;;;;5044403;28;20102;-65
2021/04/14 12:48:45;;;;;;;4.00;2.80;;;;;;;;;;5045964;28;20057;-66
2021/04/14 12:51:16;;;;;;;6.85;2.72;;;;;;;;;;5050237;28;20052;-66
2021/04/14 12:53:46;;;;;;;8.45;3.03;;;;;;;;;;5042702;28;20541;-65
2021/04/14 12:56:19;;;;;;;6.82;2.70;;;;;;;;;;5032463;28;20052;-65
2021/04/14 12:58:47;;;;;;;5.00;2.75;;;;;;;;;;5046030;28;20587;-66
2021/04/14 13:01:16;;;;;;;4.30;2.72;;;;;;;;;;5040773;28;20389;-65
2021/04/14 13:03:48;;;;;;;4.18;3.13;;;;;;;;;;5050193;28;20151;-65
2021/04/14 13:06:21;;;;;;;3.78;2.70;;;;;;;;;;5043485;28;20040;-65
2021/04/14 13:08:49;;;;;;;5.20;3.00;;;;;;;;;;5045618;28;20073;-65
2021/04/14 13:11:20;;;;;;;6.05;2.85;;;;;;;;;;5046939;28;20045;-65
2021/04/14 13:13:48;;;;;;;3.08;2.60;;;;;;;;;;5049478;28;20053;-65
2021/04/14 13:16:18;;;;;;;7.45;3.60;;;;;;;;;;5038599;28;20049;-65
2021/04/14 13:18:50;;;;;;;5.43;3.00;;;;;;;;;;5040798;28;20048;-65
2021/04/14 13:21:28;;;;;;;5.82;3.00;;;;;;;;;;5044864;28;20164;-65
2021/04/14 13:23:59;;;;;;;8.75;3.33;;;;;;;;;;5045852;28;20401;-65
2021/04/14 13:26:30;;;;;;;5.07;3.30;;;;;;;;;;5039629;28;20045;-65
2021/04/14 13:29:04;;;;;;;10.20;3.05;;;;;;;;;;5042911;28;20081;-65
2021/04/14 13:31:34;;;;;;;4.43;2.92;;;;;;;;;;5043736;28;20079;-65
2021/04/14 13:34:06;;;;;;;8.18;2.90;;;;;;;;;;5042668;28;20045;-65
2021/04/14 13:36:38;;;;;;;7.00;3.25;;;;;;;;;;5039811;28;20076;-65
2021/04/14 13:39:10;;;;;;;7.68;2.97;;;;;;;;;;5042595;28;20440;-65
2021/04/14 13:41:38;;;;;;;5.97;2.90;;;;;;;;;;5046452;28;20060;-65
2021/04/14 13:44:08;;;;;;;4.18;2.67;;;;;;;;;;5045696;28;20049;-65
2021/04/14 13:46:38;;;;;;;6.72;2.85;;;;;;;;;;5041251;28;20047;-65
2021/04/14 13:49:09;;;;;;;6.28;2.42;;;;;;;;;;5039751;28;20049;-65
2021/04/14 13:51:40;;;;;;;7.57;2.90;;;;;;;;;;5045460;28;20480;-65
2021/04/14 13:54:09;;;;;;;3.47;2.40;;;;;;;;;;5041411;28;20444;-65
2021/04/14 13:56:39;;;;;;;7.28;3.13;;;;;;;;;;5044657;28;20047;-65
2021/04/14 13:59:10;;;;;;;3.10;2.42;;;;;;;;;;5044859;28;20135;-65
2021/04/14 14:01:43;;;;;;;7.00;3.13;;;;;;;;;;5041927;28;20089;-65
2021/04/14 14:04:11;;;;;;;7.35;2.47;;;;;;;;;;5036808;28;20444;-65
2021/04/14 14:06:46;;;;;;;5.25;2.78;;;;;;;;;;5045698;28;20041;-65
2021/04/14 14:09:13;;;;;;;;;;;;;;;;;;5040963;28;20140;-65
2021/04/14 14:11:43;;;;;;;8.98;2.88;;;;;;;;;;5044862;28;19924;-65
2021/04/14 14:14:13;;;;;;;3.97;2.53;;;;;;;;;;5046183;28;20181;-65
2021/04/14 14:16:42;;;;;;;4.38;2.67;;;;;;;;;;5048589;28;20429;-65
2021/04/14 14:19:16;;;;;;;4.68;2.58;;;;;;;;;;5048936;28;20099;-66
2021/04/14 14:21:45;;;;;;;5.75;2.78;;;;;;;;;;5045418;28;20049;-66
2021/04/14 14:24:13;;;;;;;3.03;2.25;;;;;;;;;;5041411;28;20504;-65
2021/04/14 14:26:44;;;;;;;6.20;1.98;;;;;;;;;;5037325;28;20048;-66
2021/04/14 14:29:13;;;;;;;5.80;2.60;;;;;;;;;;5045706;28;20464;-66
2021/04/14 14:31:41;;;;;;;3.55;1.95;;;;;;;;;;5043419;28;20084;-66
2021/04/14 14:34:09;;;;;;;4.03;1.92;;;;;;;;;;5045224;28;20538;-66
2021/04/14 14:36:41;;;;;;;3.40;2.30;;;;;;;;;;5040428;28;20128;-65
2021/04/14 14:39:14;;;;;;;4.88;2.47;;;;;;;;;;5047738;28;20230;-65
2021/04/14 14:41:44;;;;;;;3.80;2.20;;;;;;;;;;5046273;28;20364;-65
2021/04/14 14:44:14;;;;;;;3.38;2.22;;;;;;;;;;5049063;28;20067;-65
2021/04/14 14:46:43;;;;;;;4.57;2.38;;;;;;;;;;5049445;28;20485;-65
2021/04/14 14:49:16;;;;;;;5.18;2.05;;;;;;;;;;5047345;28;20045;-66
2021/04/14 14:51:44;;;;;;;4.28;2.25;;;;;;;;;;5048639;28;20055;-65